Time;durP1;ratioP1;P1;durP2;ratioP2;P2;SDS_P1;SDS_P2;PMS_P1;PMS_P2;Temp;Humidity;BMP_temperature;BMP_pressure;BME280_temperature;BME280_humidity;BME280_pressure;Samples;Min_cycle;Max_cycle;Signal;HPM_P1;HPM_P2
2022/10/05 00:01:40;;;;;;;9.48;3.40;;;;;;;;;;5092541;28;20036;-74
2022/10/05 00:04:44;;;;;;;9.18;3.60;;;;;;;;;;5092996;28;20376;-74
2022/10/05 00:07:49;;;;;;;12.15;3.42;;;;;;;;;;5093298;28;20491;-74
2022/10/05 00:10:53;;;;;;;10.00;3.45;;;;;;;;;;5093265;28;20039;-73
2022/10/05 00:13:57;;;;;;;9.38;3.60;;;;;;;;;;5092237;28;20507;-73
2022/10/05 00:17:04;;;;;;;7.47;3.30;;;;;;;;;;5092921;28;20036;-73
2022/10/05 00:20:19;;;;;;;10.95;3.55;;;;;;;;;;5092855;28;20028;-74
2022/10/05 00:23:30;;;;;;;6.97;3.05;;;;;;;;;;5092692;28;20047;-74
2022/10/05 00:26:35;;;;;;;;;;;;;;;;;;5093001;28;20393;-73
2022/10/05 00:29:39;;;;;;;5.25;3.00;;;;;;;;;;5092504;28;19923;-73
2022/10/05 00:32:43;;;;;;;5.90;3.03;;;;;;;;;;5091653;28;20032;-73
2022/10/05 00:35:47;;;;;;;10.00;3.67;;;;;;;;;;5092469;28;20369;-74
2022/10/05 00:38:52;;;;;;;7.25;3.20;;;;;;;;;;5092415;28;20047;-74
2022/10/05 00:41:59;;;;;;;9.02;3.20;;;;;;;;;;5092368;28;20508;-74
2022/10/05 00:45:13;;;;;;;7.88;3.28;;;;;;;;;;5091652;28;20039;-74
2022/10/05 00:48:26;;;;;;;9.27;3.20;;;;;;;;;;5092410;28;20048;-74
2022/10/05 00:51:35;;;;;;;8.45;3.28;;;;;;;;;;5091670;28;20040;-73
2022/10/05 00:54:45;;;;;;;8.80;2.83;;;;;;;;;;5091156;28;20373;-74
2022/10/05 00:58:08;;;;;;;11.82;3.40;;;;;;;;;;5092153;28;20028;-73
2022/10/05 01:01:16;;;;;;;5.57;2.97;;;;;;;;;;5091826;28;20039;-74
2022/10/05 01:04:20;;;;;;;8.98;2.90;;;;;;;;;;5091009;28;20032;-74
2022/10/05 01:07:29;;;;;;;7.10;3.20;;;;;;;;;;5092315;28;20290;-73
2022/10/05 01:10:34;;;;;;;6.30;2.70;;;;;;;;;;5092223;28;20043;-74
2022/10/05 01:13:46;;;;;;;4.95;2.83;;;;;;;;;;5091955;28;20036;-73
2022/10/05 01:16:54;;;;;;;7.43;3.00;;;;;;;;;;5092061;28;20040;-74
2022/10/05 01:20:19;;;;;;;9.55;3.10;;;;;;;;;;5090805;28;20044;-73
2022/10/05 01:23:41;;;;;;;8.20;3.25;;;;;;;;;;5091408;28;20032;-73
2022/10/05 01:27:04;;;;;;;5.65;2.72;;;;;;;;;;5090516;28;20063;-72
2022/10/05 01:30:13;;;;;;;5.50;2.50;;;;;;;;;;5091763;28;20036;-74
2022/10/05 01:33:47;;;;;;;6.40;2.53;;;;;;;;;;5090358;28;20500;-73
2022/10/05 01:36:57;;;;;;;7.65;2.45;;;;;;;;;;5097251;28;20493;-74
2022/10/05 01:40:15;;;;;;;5.47;2.50;;;;;;;;;;5090561;28;20048;-74
2022/10/05 01:43:23;;;;;;;6.05;3.03;;;;;;;;;;5091575;28;20385;-75
2022/10/05 01:46:37;;;;;;;5.47;2.95;;;;;;;;;;5090207;28;20044;-74
2022/10/05 01:49:41;;;;;;;6.43;3.20;;;;;;;;;;5091633;28;20044;-74
2022/10/05 01:53:00;;;;;;;7.00;2.47;;;;;;;;;;5090919;28;20043;-73
2022/10/05 01:56:19;;;;;;;4.30;3.15;;;;;;;;;;5090350;28;20488;-73
2022/10/05 01:59:35;;;;;;;5.38;2.80;;;;;;;;;;5090434;28;20043;-73
2022/10/05 02:02:58;;;;;;;4.43;2.78;;;;;;;;;;5090461;28;20040;-73
2022/10/05 02:06:09;;;;;;;7.32;3.45;;;;;;;;;;5090024;28;20048;-74
2022/10/05 02:09:16;;;;;;;7.00;2.65;;;;;;;;;;5090431;28;20036;-74
2022/10/05 02:12:23;;;;;;;8.20;3.25;;;;;;;;;;5090375;28;20480;-74
2022/10/05 02:15:32;;;;;;;7.72;3.03;;;;;;;;;;5090050;28;20036;-74
2022/10/05 02:18:39;;;;;;;9.32;3.20;;;;;;;;;;5090430;28;20039;-74
2022/10/05 02:21:48;;;;;;;8.80;3.05;;;;;;;;;;5090179;28;20044;-73
2022/10/05 02:24:58;;;;;;;7.53;2.83;;;;;;;;;;5090260;28;20040;-74
2022/10/05 02:28:10;;;;;;;5.82;3.10;;;;;;;;;;5089993;28;20052;-74
2022/10/05 02:31:23;;;;;;;7.85;3.20;;;;;;;;;;5091033;28;20036;-74
2022/10/05 02:34:27;;;;;;;6.03;3.13;;;;;;;;;;5091137;28;20445;-73
2022/10/05 02:37:39;;;;;;;;;;;;;;;;;;5090735;28;20039;-73
2022/10/05 02:40:46;;;;;;;4.93;2.72;;;;;;;;;;5089810;28;19930;-73
2022/10/05 02:43:51;;;;;;;4.03;2.50;;;;;;;;;;5078596;28;20048;-73
2022/10/05 02:47:15;;;;;;;4.40;2.42;;;;;;;;;;5089893;28;20048;-74
2022/10/05 02:50:26;;;;;;;5.70;2.58;;;;;;;;;;5089911;28;20036;-74
2022/10/05 02:53:43;;;;;;;3.65;2.47;;;;;;;;;;5090840;28;20369;-74
2022/10/05 02:56:47;;;;;;;10.73;2.55;;;;;;;;;;5091048;28;20040;-74
2022/10/05 03:00:08;;;;;;;7.75;2.80;;;;;;;;;;5090222;28;20396;-73
2022/10/05 03:03:32;;;;;;;7.88;2.45;;;;;;;;;;5090400;28;20040;-73
2022/10/05 03:06:41;;;;;;;7.15;2.50;;;;;;;;;;5093388;28;20048;-74
2022/10/05 03:09:52;;;;;;;2.90;2.03;;;;;;;;;;5094353;28;20506;-73
2022/10/05 03:13:05;;;;;;;3.92;2.13;;;;;;;;;;5093578;28;20036;-73
2022/10/05 03:16:37;;;;;;;12.00;2.67;;;;;;;;;;5093578;28;20377;-73
2022/10/05 03:20:00;;;;;;;6.22;2.58;;;;;;;;;;5093897;28;20047;-74
2022/10/05 03:23:07;;;;;;;6.20;2.13;;;;;;;;;;5093253;28;20044;-73
2022/10/05 03:26:31;;;;;;;3.28;1.80;;;;;;;;;;5081427;28;20048;-74
2022/10/05 03:29:36;;;;;;;4.32;2.10;;;;;;;;;;5093261;28;20052;-72
2022/10/05 03:32:41;;;;;;;9.93;2.22;;;;;;;;;;5092845;28;20040;-73
2022/10/05 03:35:50;;;;;;;7.38;2.10;;;;;;;;;;5093740;28;20035;-73
2022/10/05 03:38:55;;;;;;;9.20;2.95;;;;;;;;;;5092842;28;20048;-73
2022/10/05 03:42:08;;;;;;;7.15;2.50;;;;;;;;;;5092540;28;20040;-73
2022/10/05 03:45:26;;;;;;;2.70;2.05;;;;;;;;;;5093119;28;20262;-73
2022/10/05 03:48:47;;;;;;;46.03;3.53;;;;;;;;;;5092601;28;20048;-73
2022/10/05 03:51:55;;;;;;;5.95;1.95;;;;;;;;;;5092602;28;20035;-74
2022/10/05 03:55:09;;;;;;;2.17;1.60;;;;;;;;;;5081018;28;20036;-74
2022/10/05 03:58:15;;;;;;;4.35;1.63;;;;;;;;;;5092373;28;20040;-73
2022/10/05 04:01:23;;;;;;;4.15;1.67;;;;;;;;;;5092294;28;20036;-73
2022/10/05 04:04:32;;;;;;;4.90;1.60;;;;;;;;;;5092300;28;20158;-75
2022/10/05 04:07:42;;;;;;;8.07;1.90;;;;;;;;;;5093047;28;20040;-75
2022/10/05 04:10:49;;;;;;;4.45;1.73;;;;;;;;;;5092409;28;20036;-74
2022/10/05 04:14:04;;;;;;;13.25;3.03;;;;;;;;;;5091880;28;20040;-74
2022/10/05 04:17:11;;;;;;;7.65;2.08;;;;;;;;;;5092267;28;20051;-73
2022/10/05 04:20:21;;;;;;;2.97;1.73;;;;;;;;;;5092215;28;20373;-73
2022/10/05 04:23:31;;;;;;;6.70;2.80;;;;;;;;;;5091855;28;20032;-73
2022/10/05 04:26:36;;;;;;;6.82;1.77;;;;;;;;;;5092826;28;20052;-73
2022/10/05 04:29:41;;;;;;;7.78;1.80;;;;;;;;;;5091808;28;20182;-73
2022/10/05 04:32:47;;;;;;;6.20;1.80;;;;;;;;;;5091558;28;20043;-73
2022/10/05 04:36:13;;;;;;;7.35;2.15;;;;;;;;;;5091881;28;20044;-73
2022/10/05 04:39:18;;;;;;;7.53;2.00;;;;;;;;;;5091636;28;20032;-73
2022/10/05 04:42:23;;;;;;;3.17;1.52;;;;;;;;;;5091775;28;20048;-73
2022/10/05 04:45:44;;;;;;;4.97;1.65;;;;;;;;;;5091553;28;20040;-74
2022/10/05 04:49:13;;;;;;;7.45;1.88;;;;;;;;;;5091520;28;20036;-74
2022/10/05 04:52:18;;;;;;;5.10;2.08;;;;;;;;;;5091410;28;20032;-73
2022/10/05 04:55:41;;;;;;;5.88;1.58;;;;;;;;;;5079829;28;20040;-74
2022/10/05 04:58:49;;;;;;;7.90;1.90;;;;;;;;;;5091466;28;20384;-74
2022/10/05 05:02:13;;;;;;;8.43;4.10;;;;;;;;;;5091055;28;20476;-73
2022/10/05 05:05:31;;;;;;;18.02;3.08;;;;;;;;;;5091050;28;20028;-74
2022/10/05 05:08:36;;;;;;;21.50;2.65;;;;;;;;;;5091055;28;20063;-73
2022/10/05 05:12:19;;;;;;;12.82;2.88;;;;;;;;;;5090979;28;20035;-74
2022/10/05 05:15:32;;;;;;;12.65;3.65;;;;;;;;;;5089236;28;20039;-74
2022/10/05 05:18:37;;;;;;;13.75;3.33;;;;;;;;;;5088496;28;20084;-72
2022/10/05 05:21:46;;;;;;;29.55;4.80;;;;;;;;;;5090636;28;20044;-74
2022/10/05 05:25:09;;;;;;;15.55;4.63;;;;;;;;;;5091062;28;20043;-72
2022/10/05 05:28:39;;;;;;;42.58;21.50;;;;;;;;;;5090043;28;20047;-71
2022/10/05 05:31:56;;;;;;;21.23;5.57;;;;;;;;;;5090459;28;20043;-72
2022/10/05 05:35:24;;;;;;;26.58;12.45;;;;;;;;;;5091183;28;20048;-72
2022/10/05 05:38:50;;;;;;;25.38;7.50;;;;;;;;;;5090590;28;20051;-72
2022/10/05 05:41:54;;;;;;;12.68;6.25;;;;;;;;;;5091078;28;20392;-73
2022/10/05 05:45:02;;;;;;;8.10;3.78;;;;;;;;;;5091069;28;20055;-71
2022/10/05 05:48:19;;;;;;;9.50;3.30;;;;;;;;;;5078673;28;20040;-71
2022/10/05 05:51:27;;;;;;;4.40;2.10;;;;;;;;;;5090631;28;20036;-72
2022/10/05 05:54:36;;;;;;;5.28;1.92;;;;;;;;;;5090572;28;20040;-72
2022/10/05 05:57:45;;;;;;;5.07;2.42;;;;;;;;;;5090344;28;20036;-72
2022/10/05 06:00:55;;;;;;;12.98;2.30;;;;;;;;;;5090772;28;20032;-71
2022/10/05 06:04:22;;;;;;;13.48;2.70;;;;;;;;;;5090094;28;20068;-72
2022/10/05 06:07:29;;;;;;;10.88;2.42;;;;;;;;;;5090084;28;20051;-71
2022/10/05 06:10:44;;;;;;;10.80;2.63;;;;;;;;;;5090138;28;20063;-72
2022/10/05 06:13:49;;;;;;;7.13;2.50;;;;;;;;;;5090000;28;20043;-72
2022/10/05 06:16:58;;;;;;;8.98;2.20;;;;;;;;;;5090125;28;20032;-72
2022/10/05 06:20:05;;;;;;;13.70;2.03;;;;;;;;;;5089847;28;20358;-73
2022/10/05 06:23:19;;;;;;;11.05;1.80;;;;;;;;;;5089894;28;20479;-70
2022/10/05 06:26:24;;;;;;;7.43;1.70;;;;;;;;;;5089663;28;20059;-73
2022/10/05 06:29:48;;;;;;;2.55;1.80;;;;;;;;;;5090529;28;20036;-83
2022/10/05 06:33:10;;;;;;;7.03;1.73;;;;;;;;;;5091038;28;20040;-73
2022/10/05 06:36:14;;;;;;;;;;;;;;;;;;5089996;28;20036;-68
2022/10/05 06:39:21;;;;;;;11.13;2.40;;;;;;;;;;5092377;28;19915;-77
2022/10/05 06:42:44;;;;;;;8.80;2.22;;;;;;;;;;5094734;28;20051;-74
2022/10/05 06:46:06;;;;;;;10.25;2.10;;;;;;;;;;5093650;28;20044;-71
2022/10/05 06:49:32;;;;;;;7.95;2.00;;;;;;;;;;5094335;28;20396;-77
2022/10/05 06:53:14;;;;;;;5.95;2.10;;;;;;;;;;5094336;28;20373;-73
2022/10/05 06:56:18;;;;;;;4.80;2.40;;;;;;;;;;5094525;28;20040;-72
2022/10/05 06:59:49;;;;;;;6.32;2.50;;;;;;;;;;5093342;28;20024;-70
2022/10/05 07:02:54;;;;;;;6.20;2.40;;;;;;;;;;5093876;28;20032;-74
2022/10/05 07:06:04;;;;;;;6.05;1.85;;;;;;;;;;5093367;28;20040;-73
2022/10/05 07:09:19;;;;;;;3.15;1.80;;;;;;;;;;5093694;28;20052;-75
2022/10/05 07:12:43;;;;;;;13.82;2.45;;;;;;;;;;5092917;28;20032;-73
2022/10/05 07:16:06;;;;;;;5.50;1.77;;;;;;;;;;5093919;28;20043;-75
2022/10/05 07:19:16;;;;;;;4.22;1.65;;;;;;;;;;5093329;28;20032;-74
2022/10/05 07:22:34;;;;;;;4.85;1.50;;;;;;;;;;5094226;28;20039;-72
2022/10/05 07:25:46;;;;;;;5.07;2.08;;;;;;;;;;5093263;28;20487;-72
2022/10/05 07:29:09;;;;;;;5.50;2.00;;;;;;;;;;5094047;28;20052;-72
2022/10/05 07:32:32;;;;;;;3.20;1.40;;;;;;;;;;5093008;28;20036;-74
2022/10/05 07:39:36;;;;;;;5.03;1.63;;;;;;;;;;5092573;28;20289;-74
2022/10/05 07:42:59;;;;;;;4.63;1.55;;;;;;;;;;5080951;28;20032;-77
2022/10/05 07:46:20;;;;;;;6.57;1.52;;;;;;;;;;5092704;28;20028;-75
2022/10/05 07:49:56;;;;;;;3.55;1.40;;;;;;;;;;5092215;28;20032;-73
2022/10/05 07:53:04;;;;;;;9.82;1.58;;;;;;;;;;5092672;28;20036;-73
2022/10/05 07:56:14;;;;;;;7.38;1.88;;;;;;;;;;5093299;28;20397;-73
2022/10/05 07:59:26;;;;;;;3.30;1.77;;;;;;;;;;5092417;28;20036;-73
2022/10/05 08:02:39;;;;;;;7.88;1.77;;;;;;;;;;5092309;28;20036;-73
2022/10/05 08:05:59;;;;;;;3.53;1.35;;;;;;;;;;5092947;28;20032;-71
2022/10/05 08:09:16;;;;;;;8.38;2.17;;;;;;;;;;5091939;28;20036;-74
2022/10/05 08:12:32;;;;;;;4.45;1.80;;;;;;;;;;5092847;28;20040;-72
2022/10/05 08:15:46;;;;;;;2.40;1.65;;;;;;;;;;5093157;28;20036;-73
2022/10/05 08:18:59;;;;;;;7.13;1.67;;;;;;;;;;5092960;28;20036;-71
2022/10/05 08:22:05;;;;;;;6.25;2.05;;;;;;;;;;5092794;28;20393;-72
2022/10/05 08:25:18;;;;;;;2.45;1.23;;;;;;;;;;5092950;28;20040;-75
2022/10/05 08:28:35;;;;;;;6.22;2.00;;;;;;;;;;5092526;28;20032;-72
2022/10/05 08:31:41;;;;;;;4.43;1.52;;;;;;;;;;5092269;28;20488;-72
2022/10/05 08:34:58;;;;;;;3.35;1.83;;;;;;;;;;5092657;28;20036;-71
2022/10/05 08:38:03;;;;;;;3.70;1.70;;;;;;;;;;5092827;28;20048;-73
2022/10/05 08:41:11;;;;;;;1.73;1.33;;;;;;;;;;5092378;28;20040;-75
2022/10/05 08:44:34;;;;;;;7.05;2.58;;;;;;;;;;5091658;28;20044;-75
2022/10/05 08:47:57;;;;;;;3.65;1.90;;;;;;;;;;5091271;28;20044;-74
2022/10/05 08:51:13;;;;;;;5.10;1.30;;;;;;;;;;5091938;28;20036;-73
2022/10/05 08:54:36;;;;;;;6.60;1.42;;;;;;;;;;5092097;28;20040;-75
2022/10/05 08:57:41;;;;;;;4.13;1.50;;;;;;;;;;5092277;28;20032;-73
2022/10/05 09:00:45;;;;;;;4.63;1.90;;;;;;;;;;5090551;28;20039;-73
2022/10/05 09:03:55;;;;;;;3.22;1.65;;;;;;;;;;5091848;28;20036;-74
2022/10/05 09:07:06;;;;;;;4.00;2.00;;;;;;;;;;5092064;28;20052;-73
2022/10/05 09:10:22;;;;;;;3.13;1.40;;;;;;;;;;5092195;28;20758;-74
2022/10/05 09:13:40;;;;;;;1.90;0.90;;;;;;;;;;5091772;28;20036;-74
2022/10/05 09:17:03;;;;;;;2.30;1.35;;;;;;;;;;5091823;28;20040;-75
2022/10/05 09:20:17;;;;;;;5.65;1.70;;;;;;;;;;5067268;28;20036;-72
2022/10/05 09:23:41;;;;;;;5.30;1.75;;;;;;;;;;5091473;28;20053;-73
2022/10/05 09:27:06;;;;;;;9.68;1.70;;;;;;;;;;5091108;28;20056;-78
2022/10/05 09:30:13;;;;;;;2.83;1.33;;;;;;;;;;5091461;28;20040;-75
2022/10/05 09:33:26;;;;;;;7.75;2.15;;;;;;;;;;5091413;28;20036;-76
2022/10/05 09:36:31;;;;;;;5.28;1.63;;;;;;;;;;5090447;28;20036;-74
2022/10/05 09:39:35;;;;;;;3.08;1.45;;;;;;;;;;5091456;28;20476;-75
2022/10/05 09:42:39;;;;;;;4.35;1.60;;;;;;;;;;5091118;28;20028;-77
2022/10/05 09:45:59;;;;;;;6.40;1.98;;;;;;;;;;5091516;28;20475;-76
2022/10/05 09:49:22;;;;;;;3.45;1.60;;;;;;;;;;5078655;28;20480;-77
2022/10/05 09:52:45;;;;;;;1.80;1.00;;;;;;;;;;5091045;28;20028;-77
2022/10/05 09:56:00;;;;;;;10.52;1.65;;;;;;;;;;5090630;28;20032;-76
2022/10/05 09:59:23;;;;;;;6.25;1.33;;;;;;;;;;5089751;28;20039;-77
2022/10/05 10:02:53;;;;;;;2.92;1.10;;;;;;;;;;5090163;28;20052;-76
2022/10/05 10:06:09;;;;;;;2.85;0.98;;;;;;;;;;5089559;28;20079;-77
2022/10/05 10:09:32;;;;;;;2.22;1.40;;;;;;;;;;5090070;28;20043;-76
2022/10/05 10:12:36;;;;;;;2.17;1.17;;;;;;;;;;5089610;28;20480;-76
2022/10/05 10:16:03;;;;;;;4.20;1.02;;;;;;;;;;5090569;28;20032;-76
2022/10/05 10:19:11;;;;;;;5.38;1.30;;;;;;;;;;5091340;28;20040;-76
2022/10/05 10:22:19;;;;;;;6.38;1.63;;;;;;;;;;5090788;28;20048;-77
2022/10/05 10:25:33;;;;;;;6.53;1.10;;;;;;;;;;5091126;28;20040;-73
2022/10/05 10:29:10;;;;;;;5.80;1.30;;;;;;;;;;5090391;28;20048;-74
2022/10/05 10:32:36;;;;;;;7.07;1.00;;;;;;;;;;5084083;28;20048;-76
2022/10/05 10:36:06;;;;;;;5.50;1.55;;;;;;;;;;5090981;28;20032;-76
2022/10/05 10:39:26;;;;;;;6.15;1.27;;;;;;;;;;5090812;28;20036;-75
2022/10/05 10:42:58;;;;;;;2.67;1.00;;;;;;;;;;5090549;28;20040;-75
2022/10/05 10:46:08;;;;;;;2.55;0.90;;;;;;;;;;5090253;28;20032;-77
2022/10/05 10:49:15;;;;;;;3.03;0.87;;;;;;;;;;5089714;28;20044;-75
2022/10/05 10:52:30;;;;;;;2.25;1.05;;;;;;;;;;5090378;28;20373;-76
2022/10/05 10:55:37;;;;;;;2.65;1.10;;;;;;;;;;5090345;28;20036;-74
2022/10/05 10:59:00;;;;;;;3.92;1.40;;;;;;;;;;5090739;28;20040;-77
2022/10/05 11:02:23;;;;;;;2.45;1.13;;;;;;;;;;5090382;28;20032;-76
2022/10/05 11:05:36;;;;;;;4.53;1.75;;;;;;;;;;5090327;28;20036;-76
2022/10/05 11:09:08;;;;;;;3.55;1.60;;;;;;;;;;5090483;28;20044;-75
2022/10/05 11:12:31;;;;;;;3.05;1.42;;;;;;;;;;5090485;28;20024;-76
2022/10/05 11:15:47;;;;;;;3.10;1.13;;;;;;;;;;5090527;28;20032;-76
2022/10/05 11:19:27;;;;;;;7.22;1.30;;;;;;;;;;5090481;28;20127;-78
2022/10/05 11:22:35;;;;;;;2.33;1.20;;;;;;;;;;5087959;28;20040;-77
2022/10/05 11:25:45;;;;;;;4.28;1.30;;;;;;;;;;5093173;28;20036;-75
2022/10/05 11:28:57;;;;;;;5.57;1.38;;;;;;;;;;5081716;28;20044;-76
2022/10/05 11:32:04;;;;;;;6.17;1.20;;;;;;;;;;5093908;28;20040;-76
2022/10/05 11:35:27;;;;;;;4.28;1.27;;;;;;;;;;5093808;28;20036;-75
2022/10/05 11:38:50;;;;;;;2.72;1.33;;;;;;;;;;5093895;28;20507;-76
2022/10/05 11:42:13;;;;;;;2.45;1.38;;;;;;;;;;5092809;28;20492;-75
2022/10/05 11:45:20;;;;;;;4.53;1.13;;;;;;;;;;5093750;28;20036;-78
2022/10/05 11:48:37;;;;;;;4.88;1.10;;;;;;;;;;5093736;28;20044;-76
2022/10/05 11:52:00;;;;;;;1.63;1.10;;;;;;;;;;5093305;28;20040;-75
2022/10/05 11:55:14;;;;;;;4.35;1.10;;;;;;;;;;5093500;28;20032;-76
2022/10/05 11:58:25;;;;;;;2.88;0.95;;;;;;;;;;5093797;28;20040;-76
2022/10/05 12:01:40;;;;;;;4.50;0.95;;;;;;;;;;5093168;28;20036;-74
2022/10/05 12:05:03;;;;;;;2.65;1.08;;;;;;;;;;5093398;28;20032;-76
2022/10/05 12:08:22;;;;;;;7.20;1.40;;;;;;;;;;5093278;28;20373;-76
2022/10/05 12:11:36;;;;;;;2.25;1.30;;;;;;;;;;5093203;28;20036;-75
2022/10/05 12:15:03;;;;;;;1.95;1.00;;;;;;;;;;5093942;28;20032;-77
2022/10/05 12:18:31;;;;;;;4.38;1.35;;;;;;;;;;5092102;28;20036;-77
2022/10/05 12:21:42;;;;;;;2.15;1.20;;;;;;;;;;5091683;28;20039;-75
2022/10/05 12:24:46;;;;;;;;;;;;;;;;;;5093359;28;20036;-75
2022/10/05 12:27:53;;;;;;;2.00;1.20;;;;;;;;;;5092388;28;19923;-77
2022/10/05 12:31:10;;;;;;;2.88;1.23;;;;;;;;;;5092777;28;20040;-76
2022/10/05 12:34:33;;;;;;;2.88;1.23;;;;;;;;;;5092939;28;20032;-75
2022/10/05 12:37:40;;;;;;;2.75;1.10;;;;;;;;;;5092303;28;20040;-75
2022/10/05 12:40:50;;;;;;;2.22;1.20;;;;;;;;;;5092056;28;20040;-75
2022/10/05 12:44:13;;;;;;;2.22;1.10;;;;;;;;;;5092695;28;20044;-74
2022/10/05 12:47:32;;;;;;;3.38;1.27;;;;;;;;;;5092206;28;20425;-77
2022/10/05 12:50:39;;;;;;;2.78;1.38;;;;;;;;;;5092638;28;20040;-73
2022/10/05 12:54:02;;;;;;;2.60;0.80;;;;;;;;;;5093025;28;20040;-74
2022/10/05 12:57:15;;;;;;;1.98;1.08;;;;;;;;;;5092403;28;20036;-75
2022/10/05 13:00:19;;;;;;;2.88;1.00;;;;;;;;;;5092184;28;20036;-76
2022/10/05 13:03:36;;;;;;;3.05;1.02;;;;;;;;;;5091900;28;20036;-74
2022/10/05 13:06:53;;;;;;;1.92;0.85;;;;;;;;;;5092187;28;20040;-74
2022/10/05 13:10:12;;;;;;;3.80;1.30;;;;;;;;;;5092253;28;20044;-75
2022/10/05 13:13:35;;;;;;;6.57;1.25;;;;;;;;;;5092096;28;20039;-74
2022/10/05 13:16:44;;;;;;;5.53;1.50;;;;;;;;;;5091049;28;20040;-73
2022/10/05 13:20:01;;;;;;;4.75;1.30;;;;;;;;;;5091950;28;20032;-75
2022/10/05 13:23:05;;;;;;;3.95;1.30;;;;;;;;;;5091611;28;20039;-77
2022/10/05 13:26:12;;;;;;;3.78;1.60;;;;;;;;;;5091841;28;20369;-77
2022/10/05 13:29:17;;;;;;;4.43;1.38;;;;;;;;;;5091885;28;20052;-73
2022/10/05 13:32:28;;;;;;;8.00;1.70;;;;;;;;;;5091421;28;20032;-76
2022/10/05 13:35:32;;;;;;;5.55;1.50;;;;;;;;;;5091482;28;20040;-77
2022/10/05 13:39:06;;;;;;;3.22;1.35;;;;;;;;;;5090968;28;20373;-74
2022/10/05 13:42:25;;;;;;;5.40;1.40;;;;;;;;;;5089272;28;20032;-77
2022/10/05 13:45:44;;;;;;;3.25;1.27;;;;;;;;;;5091040;28;20036;-76
2022/10/05 13:48:54;;;;;;;6.15;1.30;;;;;;;;;;5090716;28;20044;-77
2022/10/05 13:52:08;;;;;;;3.50;1.57;;;;;;;;;;5091177;28;20092;-76
2022/10/05 13:55:20;;;;;;;5.13;1.50;;;;;;;;;;5091091;28;20270;-74
2022/10/05 13:58:43;;;;;;;4.88;1.13;;;;;;;;;;5090821;28;20029;-76
2022/10/05 14:01:51;;;;;;;2.67;0.85;;;;;;;;;;5089949;28;20044;-77
2022/10/05 14:05:13;;;;;;;3.22;1.15;;;;;;;;;;5091059;28;20067;-76
2022/10/05 14:08:18;;;;;;;6.40;1.40;;;;;;;;;;5089934;28;20044;-75
2022/10/05 14:11:25;;;;;;;5.82;1.75;;;;;;;;;;5090603;28;20040;-73
2022/10/05 14:14:31;;;;;;;3.15;1.58;;;;;;;;;;5090179;28;20036;-71
2022/10/05 14:17:39;;;;;;;1.33;0.90;;;;;;;;;;5091208;28;20492;-73
2022/10/05 14:20:57;;;;;;;2.40;1.30;;;;;;;;;;5090618;28;20394;-74
2022/10/05 14:24:40;;;;;;;3.20;1.20;;;;;;;;;;5090625;28;20040;-72
2022/10/05 14:27:52;;;;;;;4.82;1.45;;;;;;;;;;5088157;28;20068;-73
2022/10/05 14:31:01;;;;;;;7.45;1.45;;;;;;;;;;5087696;28;20036;-72
2022/10/05 14:34:26;;;;;;;5.65;1.42;;;;;;;;;;5090587;28;20040;-80
2022/10/05 14:37:32;;;;;;;5.18;1.27;;;;;;;;;;5090853;28;20088;-78
2022/10/05 14:40:38;;;;;;;5.78;1.30;;;;;;;;;;5089435;28;20044;-72
2022/10/05 14:43:55;;;;;;;5.57;1.40;;;;;;;;;;5090706;28;20033;-78
2022/10/05 14:47:11;;;;;;;3.50;1.77;;;;;;;;;;5090617;28;20040;-77
2022/10/05 14:50:15;;;;;;;8.85;1.95;;;;;;;;;;5090567;28;20032;-70
2022/10/05 14:53:21;;;;;;;2.70;1.40;;;;;;;;;;5090332;28;20036;-71
2022/10/05 14:56:25;;;;;;;4.82;2.00;;;;;;;;;;5089282;28;20508;-71
2022/10/05 14:59:32;;;;;;;3.97;1.92;;;;;;;;;;5091644;28;20044;-74
2022/10/05 15:03:01;;;;;;;2.42;1.33;;;;;;;;;;5094177;28;20040;-71
2022/10/05 15:06:08;;;;;;;2.60;1.20;;;;;;;;;;5094222;28;20377;-74
2022/10/05 15:09:37;;;;;;;2.20;1.20;;;;;;;;;;5094375;28;20151;-74
2022/10/05 15:12:42;;;;;;;2.67;1.35;;;;;;;;;;5094283;28;20483;-80
2022/10/05 15:15:59;;;;;;;4.18;1.33;;;;;;;;;;5094038;28;20036;-79
2022/10/05 15:19:14;;;;;;;4.15;1.40;;;;;;;;;;5094234;28;20401;-79
2022/10/05 15:22:41;;;;;;;4.93;2.42;;;;;;;;;;5094367;28;20040;-82
2022/10/05 15:25:51;;;;;;;4.32;1.60;;;;;;;;;;5095014;28;20036;-81
2022/10/05 15:28:58;;;;;;;8.15;1.70;;;;;;;;;;5094208;28;20052;-83
2022/10/05 15:32:03;;;;;;;6.65;1.63;;;;;;;;;;5093305;28;20033;-84
2022/10/05 15:35:26;;;;;;;2.45;1.40;;;;;;;;;;5094435;28;20040;-83
2022/10/05 15:38:50;;;;;;;2.88;1.20;;;;;;;;;;5093981;28;20035;-75
2022/10/05 15:42:03;;;;;;;3.92;1.20;;;;;;;;;;5095094;28;20488;-76
2022/10/05 15:45:09;;;;;;;4.80;1.88;;;;;;;;;;5093450;28;20043;-76
2022/10/05 15:48:18;;;;;;;3.40;1.30;;;;;;;;;;5093351;28;20044;-75
2022/10/05 15:51:49;;;;;;;1.42;1.20;;;;;;;;;;5093278;28;20036;-75
2022/10/05 15:54:59;;;;;;;2.15;1.45;;;;;;;;;;5093385;28;20044;-76
2022/10/05 15:58:09;;;;;;;5.00;1.73;;;;;;;;;;5093058;28;20036;-78
2022/10/05 16:01:24;;;;;;;6.80;1.73;;;;;;;;;;5091994;28;20036;-78
2022/10/05 16:04:32;;;;;;;2.78;1.70;;;;;;;;;;5092886;28;20274;-78
2022/10/05 16:11:09;;;;;;;7.65;3.80;;;;;;;;;;5093106;28;20039;-77
2022/10/05 16:14:13;;;;;;;8.07;3.92;;;;;;;;;;5092794;28;20447;-77
2022/10/05 16:17:27;;;;;;;8.20;3.92;;;;;;;;;;5092779;28;20316;-77
2022/10/05 16:20:40;;;;;;;8.10;3.67;;;;;;;;;;5093048;28;20488;-78
2022/10/05 16:23:55;;;;;;;17.00;4.95;;;;;;;;;;5092765;28;20028;-77
2022/10/05 16:27:03;;;;;;;12.60;3.75;;;;;;;;;;5092291;28;20114;-77
2022/10/05 16:30:30;;;;;;;14.75;3.25;;;;;;;;;;5092495;28;20043;-77
2022/10/05 16:33:40;;;;;;;17.33;3.65;;;;;;;;;;5092923;28;20051;-77
2022/10/05 16:36:57;;;;;;;23.98;4.57;;;;;;;;;;5092837;28;20391;-77
2022/10/05 16:40:18;;;;;;;21.20;6.68;;;;;;;;;;5091316;28;20054;-76
2022/10/05 16:43:25;;;;;;;19.23;8.18;;;;;;;;;;5092329;28;20044;-79
2022/10/05 16:46:36;;;;;;;38.25;9.25;;;;;;;;;;5092476;28;20540;-77
2022/10/05 16:49:52;;;;;;;33.85;18.23;;;;;;;;;;5092450;28;20368;-78
2022/10/05 16:53:03;;;;;;;33.17;14.00;;;;;;;;;;5092096;28;20298;-78
2022/10/05 16:56:14;;;;;;;18.98;6.80;;;;;;;;;;5091907;28;20392;-76
2022/10/05 16:59:31;;;;;;;14.32;5.20;;;;;;;;;;5091784;28;20405;-76
2022/10/05 17:02:58;;;;;;;18.27;6.22;;;;;;;;;;5091913;28;20626;-76
2022/10/05 17:06:02;;;;;;;18.90;6.03;;;;;;;;;;5091990;28;20047;-76
2022/10/05 17:09:07;;;;;;;19.02;3.95;;;;;;;;;;5091864;28;20055;-76
2022/10/05 17:12:17;;;;;;;22.33;5.10;;;;;;;;;;5091798;28;20510;-77
2022/10/05 17:15:28;;;;;;;14.00;3.80;;;;;;;;;;5092141;28;20042;-76
2022/10/05 17:18:38;;;;;;;21.10;5.03;;;;;;;;;;5091602;28;20039;-77
2022/10/05 17:21:59;;;;;;;22.00;4.55;;;;;;;;;;5090870;28;20047;-77
2022/10/05 17:25:07;;;;;;;17.65;4.57;;;;;;;;;;5091931;28;20034;-75
2022/10/05 17:28:18;;;;;;;11.35;3.85;;;;;;;;;;5090879;28;20051;-76
2022/10/05 17:31:23;;;;;;;31.03;5.97;;;;;;;;;;5091337;28;20408;-77
2022/10/05 17:34:29;;;;;;;63.63;17.67;;;;;;;;;;5091153;28;20788;-77
2022/10/05 17:37:35;;;;;;;30.13;8.18;;;;;;;;;;5091170;28;20035;-76
2022/10/05 17:40:40;;;;;;;27.33;5.63;;;;;;;;;;5090381;28;20043;-76
2022/10/05 17:44:03;;;;;;;24.75;5.10;;;;;;;;;;5088712;28;20058;-76
2022/10/05 17:47:12;;;;;;;22.67;5.25;;;;;;;;;;5090106;28;20396;-77
2022/10/05 17:57:23;;;;;;;26.90;5.68;;;;;;;;;;5091554;28;20507;-78
2022/10/05 18:00:33;;;;;;;22.73;6.28;;;;;;;;;;5091245;28;20048;-77
2022/10/05 18:04:01;;;;;;;16.00;5.78;;;;;;;;;;5091178;28;20047;-76
2022/10/05 18:07:16;;;;;;;35.80;8.45;;;;;;;;;;5090722;28;20047;-78
2022/10/05 18:10:27;;;;;;;14.10;5.25;;;;;;;;;;5090831;28;20046;-77
2022/10/05 18:13:34;;;;;;;24.40;5.82;;;;;;;;;;5091196;28;20047;-77
2022/10/05 18:16:56;;;;;;;17.98;5.55;;;;;;;;;;5091037;28;20054;-77
2022/10/05 18:20:07;;;;;;;23.70;6.72;;;;;;;;;;5090880;28;20035;-76
2022/10/05 18:23:11;;;;;;;22.83;7.00;;;;;;;;;;5090887;28;20054;-76
2022/10/05 18:26:28;;;;;;;37.67;7.45;;;;;;;;;;5090849;28;20495;-77
2022/10/05 18:30:07;;;;;;;17.73;6.70;;;;;;;;;;5090704;28;20051;-77
2022/10/05 18:33:20;;;;;;;18.63;6.63;;;;;;;;;;5091448;28;20063;-77
2022/10/05 18:36:43;;;;;;;32.97;7.88;;;;;;;;;;5094794;28;20094;-76
2022/10/05 18:39:51;;;;;;;20.77;6.72;;;;;;;;;;5094672;28;20047;-75
2022/10/05 18:43:10;;;;;;;25.48;6.70;;;;;;;;;;5094446;28;20043;-74
2022/10/05 18:46:27;;;;;;;22.40;6.95;;;;;;;;;;5094288;28;20051;-73
2022/10/05 18:49:38;;;;;;;17.17;6.90;;;;;;;;;;5094366;28;20051;-73
2022/10/05 18:52:54;;;;;;;21.90;6.80;;;;;;;;;;5094341;28;20051;-73
2022/10/05 18:56:23;;;;;;;21.75;6.90;;;;;;;;;;5094276;28;20045;-74
2022/10/05 18:59:36;;;;;;;29.60;8.40;;;;;;;;;;5094602;28;20036;-74
2022/10/05 19:02:44;;;;;;;24.67;9.25;;;;;;;;;;5093236;28;20047;-73
2022/10/05 19:06:06;;;;;;;24.33;8.00;;;;;;;;;;5094406;28;20046;-72
2022/10/05 19:09:13;;;;;;;24.65;7.63;;;;;;;;;;5094269;28;20066;-74
2022/10/05 19:12:18;;;;;;;19.15;7.85;;;;;;;;;;5093254;28;20047;-73
2022/10/05 19:15:31;;;;;;;22.52;8.38;;;;;;;;;;5094350;28;20063;-73
2022/10/05 19:18:49;;;;;;;38.15;8.15;;;;;;;;;;5093475;28;20038;-75
2022/10/05 19:21:53;;;;;;;26.55;8.23;;;;;;;;;;5093710;28;20043;-74
2022/10/05 19:25:16;;;;;;;24.10;9.68;;;;;;;;;;5092970;28;20400;-73
2022/10/05 19:28:53;;;;;;;23.35;9.80;;;;;;;;;;5093699;28;20043;-75
2022/10/05 19:32:07;;;;;;;18.77;8.52;;;;;;;;;;5092881;28;20388;-73
2022/10/05 19:35:11;;;;;;;28.35;8.95;;;;;;;;;;5093736;28;20301;-73